createdAt,value
2018-09-29T00:01:37.353Z,10.13
2018-09-29T00:04:13.795Z,11.73
2018-09-29T00:06:46.194Z,9.30
2018-09-29T00:12:28.606Z,4.87
2018-09-29T00:14:58.582Z,14.10
2018-09-29T00:17:31.318Z,8.13
2018-09-29T00:20:01.226Z,7.97
2018-09-29T00:22:30.247Z,7.53
2018-09-29T00:24:59.298Z,10.60
2018-09-29T00:27:28.220Z,11.27
2018-09-29T00:29:58.164Z,10.13
2018-09-29T00:32:32.666Z,12.00
2018-09-29T00:35:07.684Z,10.70
2018-09-29T00:37:42.759Z,12.47
2018-09-29T00:40:13.957Z,8.60
2018-09-29T00:42:46.344Z,9.27
2018-09-29T00:45:16.296Z,11.33
2018-09-29T00:47:47.188Z,15.30
2018-09-29T00:50:21.830Z,10.57
2018-09-29T00:52:56.977Z,11.13
2018-09-29T00:55:36.968Z,12.10
2018-09-29T00:58:10.343Z,13.80
2018-09-29T01:00:39.322Z,10.13
2018-09-29T01:03:08.333Z,9.23
2018-09-29T01:05:54.888Z,11.30
2018-09-29T01:08:27.338Z,8.40
2018-09-29T01:11:14.990Z,7.57
2018-09-29T01:13:44.298Z,9.40
2018-09-29T01:16:16.562Z,9.53
2018-09-29T01:19:03.460Z,8.33
2018-09-29T01:21:37.197Z,7.67
2018-09-29T01:24:07.127Z,9.30
2018-09-29T01:26:36.097Z,10.13
2018-09-29T01:29:15.230Z,8.20
2018-09-29T01:32:02.729Z,11.57
2018-09-29T01:34:32.687Z,9.00
2018-09-29T01:37:15.013Z,7.53
2018-09-29T01:39:45.956Z,12.80
2018-09-29T01:42:18.274Z,8.80
2018-09-29T01:44:47.192Z,12.37
2018-09-29T01:47:16.177Z,12.17
2018-09-29T01:49:45.445Z,9.47
2018-09-29T01:52:15.463Z,9.03
2018-09-29T01:54:48.060Z,11.03
2018-09-29T01:57:27.123Z,9.40
2018-09-29T02:00:14.493Z,11.13
2018-09-29T02:02:47.196Z,14.07
2018-09-29T02:05:16.148Z,13.80
2018-09-29T02:07:45.069Z,12.27
2018-09-29T02:10:14.066Z,8.07
2018-09-29T02:12:46.743Z,9.53
2018-09-29T02:15:27.134Z,10.50
2018-09-29T02:18:16.878Z,12.03
2018-09-29T02:20:45.774Z,9.63
2018-09-29T02:23:16.764Z,9.13
2018-09-29T02:25:45.632Z,10.67
2018-09-29T02:28:19.780Z,11.47
2018-09-29T02:30:52.974Z,10.97
2018-09-29T02:33:21.886Z,9.73
2018-09-29T02:35:50.782Z,14.03
2018-09-29T02:38:33.416Z,10.07
2018-09-29T02:41:02.291Z,11.43
2018-09-29T02:43:31.216Z,13.20
2018-09-29T02:46:00.245Z,9.97
2018-09-29T02:48:32.352Z,14.20
2018-09-29T02:51:01.250Z,8.37
2018-09-29T02:53:33.240Z,16.80
2018-09-29T02:56:15.925Z,13.67
2018-09-29T02:58:44.811Z,13.30
2018-09-29T03:01:13.690Z,14.53
2018-09-29T03:03:47.837Z,13.27
2018-09-29T03:06:22.672Z,9.73
2018-09-29T03:08:53.617Z,12.17
2018-09-29T03:11:22.547Z,8.67
2018-09-29T03:14:09.192Z,8.53
2018-09-29T03:16:43.637Z,9.83
2018-09-29T03:19:18.629Z,10.40
2018-09-29T03:21:47.676Z,10.40
2018-09-29T03:24:22.362Z,10.73
2018-09-29T03:26:57.201Z,11.00
2018-09-29T03:29:26.078Z,11.57
2018-09-29T03:31:55.083Z,10.77
2018-09-29T03:34:24.679Z,7.07
2018-09-29T03:37:07.375Z,8.07
2018-09-29T03:39:44.220Z,8.47
2018-09-29T03:42:13.278Z,12.30
2018-09-29T03:44:43.475Z,11.40
2018-09-29T03:47:13.075Z,10.87
2018-09-29T03:49:42.582Z,9.57
2018-09-29T03:52:21.140Z,7.30
2018-09-29T03:54:50.994Z,7.60
2018-09-29T03:57:23.461Z,9.70
2018-09-29T03:59:52.647Z,7.47
2018-09-29T04:02:23.960Z,7.93
2018-09-29T04:04:56.987Z,9.17
2018-09-29T04:07:26.310Z,7.43
2018-09-29T04:09:55.879Z,11.53
2018-09-29T04:12:28.242Z,11.67
2018-09-29T04:14:59.335Z,10.33
2018-09-29T04:17:28.609Z,8.00
2018-09-29T04:20:01.149Z,7.07
2018-09-29T04:22:31.170Z,9.77
2018-09-29T04:25:06.243Z,10.10
2018-09-29T04:27:39.079Z,7.90
2018-09-29T04:30:18.795Z,11.27
2018-09-29T04:32:48.802Z,9.93
2018-09-29T04:35:18.933Z,7.83
2018-09-29T04:37:47.974Z,11.13
2018-09-29T04:40:17.148Z,7.50
2018-09-29T04:42:47.293Z,9.17
2018-09-29T04:45:18.216Z,9.53
2018-09-29T04:47:48.319Z,10.73
2018-09-29T04:50:21.025Z,8.33
2018-09-29T04:52:50.154Z,5.73
2018-09-29T04:55:19.126Z,8.67
2018-09-29T04:57:50.011Z,8.07
2018-09-29T05:00:22.107Z,6.80
2018-09-29T05:02:56.390Z,6.93
2018-09-29T05:05:27.464Z,6.13
2018-09-29T05:07:58.396Z,11.30
2018-09-29T05:10:31.150Z,8.77
2018-09-29T05:13:01.093Z,6.13
2018-09-29T05:15:30.013Z,7.53
2018-09-29T05:18:05.125Z,8.40
2018-09-29T05:20:34.084Z,21.80
2018-09-29T05:23:10.010Z,8.77
2018-09-29T05:25:38.953Z,7.03
2018-09-29T05:28:07.897Z,5.70
2018-09-29T05:30:38.157Z,8.13
2018-09-29T05:33:07.244Z,9.67
2018-09-29T05:35:38.141Z,11.43
2018-09-29T05:38:08.061Z,8.97
2018-09-29T05:40:37.042Z,9.13
2018-09-29T05:43:24.927Z,10.80
2018-09-29T05:45:53.910Z,7.97
2018-09-29T05:48:26.721Z,9.30
2018-09-29T05:50:59.730Z,8.90
2018-09-29T05:53:30.682Z,11.30
2018-09-29T05:55:59.768Z,8.23
2018-09-29T05:58:30.738Z,11.60
2018-09-29T06:01:02.930Z,9.27
2018-09-29T06:03:34.263Z,9.43
2018-09-29T06:06:22.440Z,5.90
2018-09-29T06:08:56.093Z,8.50
2018-09-29T06:11:27.004Z,6.83
2018-09-29T06:14:00.209Z,8.90
2018-09-29T06:16:40.980Z,10.00
2018-09-29T06:24:58.772Z,7.13
2018-09-29T06:27:27.746Z,6.93
2018-09-29T06:30:00.436Z,9.00
2018-09-29T06:32:29.466Z,8.47
2018-09-29T06:35:02.407Z,6.57
2018-09-29T06:37:37.746Z,10.70
2018-09-29T06:40:17.695Z,10.70
2018-09-29T06:42:50.152Z,8.13
2018-09-29T06:45:20.101Z,8.30
2018-09-29T06:47:49.113Z,8.50
2018-09-29T06:50:21.251Z,10.63
2018-09-29T06:52:51.193Z,8.63
2018-09-29T06:55:20.163Z,10.60
2018-09-29T06:58:01.121Z,11.47
2018-09-29T07:00:31.040Z,10.37
2018-09-29T07:03:02.039Z,8.27
2018-09-29T07:05:48.041Z,11.93
2018-09-29T07:08:16.979Z,12.10
2018-09-29T07:10:57.940Z,13.87
2018-09-29T07:13:39.016Z,9.33
2018-09-29T07:16:15.948Z,9.83
2018-09-29T07:18:46.933Z,13.53
2018-09-29T07:21:16.228Z,11.90
2018-09-29T07:23:46.165Z,11.53
2018-09-29T07:26:15.339Z,9.60
2018-09-29T07:28:56.869Z,9.57
2018-09-29T07:31:27.030Z,10.30
2018-09-29T07:34:09.029Z,11.30
2018-09-29T07:36:38.061Z,10.97
2018-09-29T07:39:09.053Z,17.23
2018-09-29T07:41:37.979Z,9.33
2018-09-29T07:44:11.011Z,10.50
2018-09-29T07:46:47.349Z,10.23
2018-09-29T07:49:16.397Z,11.73
2018-09-29T07:51:49.808Z,10.40
2018-09-29T07:54:22.126Z,11.23
2018-09-29T07:56:56.083Z,9.30
2018-09-29T07:59:26.823Z,10.40
2018-09-29T08:02:10.036Z,14.60
2018-09-29T08:04:40.072Z,9.53
2018-09-29T08:07:09.163Z,11.87
2018-09-29T08:09:39.127Z,12.17
2018-09-29T08:15:07.982Z,11.07
2018-09-29T08:17:42.667Z,12.67
2018-09-29T08:20:11.644Z,9.87
2018-09-29T08:22:51.479Z,12.83
2018-09-29T08:25:34.885Z,9.53
2018-09-29T08:28:09.400Z,10.93
2018-09-29T08:30:45.821Z,10.40
2018-09-29T08:33:19.706Z,8.37
2018-09-29T08:35:50.796Z,11.80
2018-09-29T08:38:24.839Z,10.97
2018-09-29T08:40:57.315Z,12.30
2018-09-29T08:43:26.201Z,13.37
2018-09-29T08:46:00.768Z,7.43
2018-09-29T08:48:33.341Z,11.07
2018-09-29T08:51:04.376Z,10.30
2018-09-29T08:53:33.861Z,13.50
2018-09-29T08:56:09.571Z,8.97
2018-09-29T08:58:43.665Z,6.70
2018-09-29T09:01:18.443Z,10.30
2018-09-29T09:03:48.413Z,11.80
2018-09-29T09:06:18.344Z,11.23
2018-09-29T09:08:53.769Z,10.63
2018-09-29T09:11:26.001Z,8.50
2018-09-29T09:13:55.247Z,10.93
2018-09-29T09:16:32.422Z,12.60
2018-09-29T09:19:09.411Z,8.50
2018-09-29T09:21:38.386Z,8.50
2018-09-29T09:24:07.470Z,10.57
2018-09-29T09:26:38.414Z,6.87
2018-09-29T09:29:08.452Z,7.57
2018-09-29T09:31:39.653Z,8.20
2018-09-29T09:34:20.976Z,9.40
2018-09-29T09:37:04.592Z,8.47
2018-09-29T09:39:35.270Z,8.33
2018-09-29T09:42:09.184Z,9.77
2018-09-29T09:44:38.597Z,8.17
2018-09-29T09:47:12.498Z,7.97
2018-09-29T09:49:41.858Z,8.23
2018-09-29T09:52:17.745Z,7.07
2018-09-29T09:54:52.365Z,8.30
2018-09-29T09:57:21.292Z,9.73
2018-09-29T09:59:50.289Z,9.60
2018-09-29T10:02:28.472Z,8.47
2018-09-29T10:04:57.777Z,7.70
2018-09-29T10:07:32.473Z,7.37
2018-09-29T10:10:01.689Z,3.53
2018-09-29T10:12:30.753Z,10.17
2018-09-29T10:15:00.593Z,7.47
2018-09-29T10:17:33.704Z,6.87
2018-09-29T10:20:06.048Z,9.47
2018-09-29T10:22:39.060Z,5.43
2018-09-29T10:25:09.117Z,7.70
2018-09-29T10:27:46.285Z,6.07
2018-09-29T10:30:21.158Z,5.30
2018-09-29T10:32:51.270Z,7.30
2018-09-29T10:35:24.524Z,6.57
2018-09-29T10:37:58.214Z,6.93
2018-09-29T10:40:27.209Z,6.27
2018-09-29T10:42:56.181Z,8.87
2018-09-29T10:45:25.540Z,4.97
2018-09-29T10:48:12.944Z,3.97
2018-09-29T10:50:46.381Z,6.07
2018-09-29T10:53:17.295Z,5.97
2018-09-29T10:55:46.383Z,8.00
2018-09-29T10:58:16.461Z,4.10
2018-09-29T11:00:54.963Z,6.07
2018-09-29T11:03:28.310Z,5.37
2018-09-29T11:05:59.341Z,7.20
2018-09-29T11:08:29.160Z,4.80
2018-09-29T11:11:03.214Z,4.63
2018-09-29T11:13:37.636Z,4.33
2018-09-29T11:16:07.965Z,3.40
2018-09-29T11:18:39.281Z,5.90
2018-09-29T11:21:09.182Z,3.83
2018-09-29T11:23:38.099Z,9.13
2018-09-29T11:26:10.671Z,6.77
2018-09-29T11:28:43.313Z,4.97
2018-09-29T11:31:14.563Z,3.97
2018-09-29T11:33:43.645Z,5.27
2018-09-29T11:36:13.158Z,3.60
2018-09-29T11:38:42.590Z,5.00
2018-09-29T11:41:13.149Z,3.57
2018-09-29T11:43:45.740Z,4.03
2018-09-29T11:46:19.675Z,6.17
2018-09-29T11:48:49.292Z,4.57
2018-09-29T11:51:18.925Z,6.17
2018-09-29T11:53:52.327Z,4.80
2018-09-29T11:56:26.340Z,6.40
2018-09-29T11:58:56.168Z,6.00
2018-09-29T12:01:36.492Z,6.10
2018-09-29T12:04:06.472Z,4.20
2018-09-29T12:06:37.104Z,5.10
2018-09-29T12:09:09.912Z,4.03
2018-09-29T12:11:43.212Z,6.97
2018-09-29T12:14:31.006Z,6.77
2018-09-29T12:17:03.727Z,10.53
2018-09-29T12:19:39.575Z,4.20
2018-09-29T12:22:10.662Z,7.33
2018-09-29T12:24:39.718Z,7.83
2018-09-29T12:27:10.714Z,6.30
2018-09-29T12:29:46.079Z,5.77
2018-09-29T12:32:20.387Z,6.57
2018-09-29T12:34:53.386Z,4.27
2018-09-29T12:37:22.371Z,6.77
2018-09-29T12:39:53.319Z,9.57
2018-09-29T12:42:25.819Z,8.83
2018-09-29T12:44:54.949Z,4.70
2018-09-29T12:47:23.822Z,4.00
2018-09-29T12:49:52.876Z,4.90
2018-09-29T12:52:22.950Z,9.13
2018-09-29T12:54:53.971Z,7.23
2018-09-29T12:57:23.176Z,6.33
2018-09-29T12:59:52.342Z,4.87
2018-09-29T13:02:21.343Z,7.50
2018-09-29T13:05:00.373Z,5.70
2018-09-29T13:07:29.394Z,5.03
2018-09-29T13:10:01.721Z,5.97
2018-09-29T13:12:32.773Z,5.27
2018-09-29T13:15:01.717Z,3.73
2018-09-29T13:17:35.361Z,5.37
2018-09-29T13:20:08.030Z,4.07
2018-09-29T13:22:36.982Z,6.57
2018-09-29T13:25:07.332Z,3.87
2018-09-29T13:27:36.282Z,3.83
2018-09-29T13:30:17.630Z,3.70
2018-09-29T13:32:53.049Z,4.33
2018-09-29T13:35:22.046Z,6.10
2018-09-29T13:37:51.073Z,6.07
2018-09-29T13:40:20.082Z,6.07
2018-09-29T13:42:50.154Z,5.43
2018-09-29T13:45:23.584Z,2.50
2018-09-29T13:47:52.659Z,6.23
2018-09-29T13:50:32.188Z,5.00
2018-09-29T13:53:02.236Z,6.07
2018-09-29T13:55:33.308Z,5.20
2018-09-29T13:58:02.290Z,3.70
2018-09-29T14:00:32.449Z,7.00
2018-09-29T14:03:01.506Z,5.37
2018-09-29T14:05:34.974Z,5.63
2018-09-29T14:08:05.219Z,4.73
2018-09-29T14:10:35.241Z,2.37
2018-09-29T14:13:08.431Z,8.57
2018-09-29T14:15:37.575Z,7.17
2018-09-29T14:18:07.635Z,3.77
2018-09-29T14:20:36.686Z,4.30
2018-09-29T14:23:07.248Z,4.77
2018-09-29T14:25:37.224Z,4.60
2018-09-29T14:28:06.276Z,4.30
2018-09-29T14:30:36.323Z,4.80
2018-09-29T14:33:05.431Z,4.97
2018-09-29T14:35:34.472Z,3.60
2018-09-29T14:38:03.565Z,2.90
2018-09-29T14:40:32.753Z,3.83
2018-09-29T14:43:03.856Z,4.60
2018-09-29T14:45:33.879Z,5.77
2018-09-29T14:48:02.977Z,2.07
2018-09-29T14:50:34.197Z,3.77
2018-09-29T14:53:05.195Z,4.10
2018-09-29T14:55:37.619Z,8.77
2018-09-29T14:58:06.818Z,3.03
2018-09-29T15:00:36.071Z,5.37
2018-09-29T15:03:09.609Z,4.07
2018-09-29T15:05:39.580Z,3.03
2018-09-29T15:08:08.547Z,4.37
2018-09-29T15:10:40.845Z,4.47
2018-09-29T15:13:14.810Z,4.67
2018-09-29T15:15:44.052Z,3.63
2018-09-29T15:18:13.255Z,4.50
2018-09-29T15:20:48.471Z,5.57
2018-09-29T15:23:17.589Z,6.33
2018-09-29T15:25:50.871Z,6.93
2018-09-29T15:28:19.984Z,8.07
2018-09-29T15:30:48.912Z,3.43
2018-09-29T15:33:18.037Z,6.07
2018-09-29T15:35:48.926Z,6.47
2018-09-29T15:38:18.864Z,5.73
2018-09-29T15:40:47.901Z,6.37
2018-09-29T15:43:16.829Z,5.83
2018-09-29T15:45:50.279Z,4.87
2018-09-29T15:48:19.271Z,4.33
2018-09-29T15:50:50.155Z,4.50
2018-09-29T15:53:25.679Z,6.03
2018-09-29T15:55:55.613Z,4.90
2018-09-29T15:58:25.599Z,5.93
2018-09-29T16:00:54.874Z,7.43
2018-09-29T16:03:28.722Z,6.70
2018-09-29T16:05:59.678Z,6.20
2018-09-29T16:08:32.746Z,7.00
2018-09-29T16:11:14.765Z,3.67
2018-09-29T16:13:48.897Z,5.77
2018-09-29T16:16:17.928Z,7.13
2018-09-29T16:18:46.884Z,8.43
2018-09-29T16:21:17.170Z,6.57
2018-09-29T16:23:50.218Z,7.13
2018-09-29T16:26:19.306Z,6.90
2018-09-29T16:28:50.231Z,5.40
2018-09-29T16:31:19.232Z,6.73
2018-09-29T16:33:49.291Z,3.97
2018-09-29T16:36:18.259Z,7.67
2018-09-29T16:38:49.611Z,5.23
2018-09-29T16:41:25.673Z,4.27
2018-09-29T16:43:54.648Z,8.10
2018-09-29T16:46:37.369Z,3.90
2018-09-29T16:49:09.487Z,5.97
2018-09-29T16:54:24.419Z,6.53
2018-09-29T16:56:59.035Z,5.57
2018-09-29T16:59:29.975Z,5.67
2018-09-29T17:01:59.934Z,5.37
2018-09-29T17:04:30.086Z,5.97
2018-09-29T17:07:04.950Z,6.50
2018-09-29T17:09:39.749Z,7.97
2018-09-29T17:12:08.696Z,6.63
2018-09-29T17:14:42.356Z,9.37
2018-09-29T17:17:16.345Z,5.77
2018-09-29T17:19:45.373Z,4.43
2018-09-29T17:25:07.506Z,5.57
2018-09-29T17:27:42.623Z,7.47
2018-09-29T17:30:15.044Z,4.33
2018-09-29T17:32:46.071Z,6.83
2018-09-29T17:35:15.042Z,6.97
2018-09-29T17:37:45.301Z,7.80
2018-09-29T17:40:20.728Z,7.80
2018-09-29T17:43:02.558Z,8.13
2018-09-29T17:45:35.819Z,6.70
2018-09-29T17:48:10.980Z,7.70
2018-09-29T17:50:41.934Z,6.63
2018-09-29T17:53:11.927Z,8.43
2018-09-29T17:55:54.782Z,5.90
2018-09-29T17:58:23.764Z,6.70
2018-09-29T18:00:53.771Z,9.37
2018-09-29T18:03:27.204Z,8.23
2018-09-29T18:05:57.115Z,10.63
2018-09-29T18:08:26.048Z,7.97
2018-09-29T18:11:09.825Z,7.57
2018-09-29T18:13:39.037Z,8.30
2018-09-29T18:16:08.317Z,8.70
2018-09-29T18:18:37.303Z,6.97
2018-09-29T18:21:13.751Z,9.60
2018-09-29T18:23:46.049Z,6.00
2018-09-29T18:26:19.385Z,7.13
2018-09-29T18:28:52.998Z,8.73
2018-09-29T18:31:22.931Z,8.17
2018-09-29T18:33:51.936Z,6.27
2018-09-29T18:36:25.132Z,6.30
2018-09-29T18:38:55.146Z,7.83
2018-09-29T18:41:26.085Z,8.20
2018-09-29T18:43:55.429Z,7.37
2018-09-29T18:46:24.396Z,7.33
2018-09-29T18:49:00.663Z,10.33
2018-09-29T18:51:30.616Z,7.20
2018-09-29T18:54:03.841Z,7.17
2018-09-29T18:56:35.406Z,7.90
2018-09-29T18:59:17.680Z,10.83
2018-09-29T19:01:52.290Z,7.53
2018-09-29T19:04:22.086Z,7.80
2018-09-29T19:06:51.339Z,8.53
2018-09-29T19:09:23.707Z,8.87
2018-09-29T19:11:57.543Z,8.53
2018-09-29T19:14:27.483Z,9.27
2018-09-29T19:16:56.469Z,13.40
2018-09-29T19:19:27.490Z,10.53
2018-09-29T19:22:01.215Z,8.37
2018-09-29T19:24:35.389Z,9.57
2018-09-29T19:27:06.470Z,9.03
2018-09-29T19:29:40.134Z,10.83
2018-09-29T19:32:16.399Z,9.97
2018-09-29T19:34:51.402Z,11.53
2018-09-29T19:37:20.788Z,12.17
2018-09-29T19:40:04.544Z,15.73
2018-09-29T19:42:36.646Z,10.53
2018-09-29T19:45:07.609Z,12.37
2018-09-29T19:47:36.560Z,9.87
2018-09-29T19:50:06.988Z,12.20
2018-09-29T19:52:39.174Z,11.47
2018-09-29T19:55:08.146Z,8.37
2018-09-29T19:57:37.149Z,9.60
2018-09-29T20:00:06.150Z,10.93
2018-09-29T20:02:35.112Z,8.80
2018-09-29T20:05:27.747Z,8.40
2018-09-29T20:08:06.914Z,8.93
2018-09-29T20:10:36.920Z,8.23
2018-09-29T20:13:06.918Z,12.47
2018-09-29T20:15:41.553Z,10.33
2018-09-29T20:18:11.505Z,8.37
2018-09-29T20:20:48.157Z,10.40
2018-09-29T20:23:18.122Z,9.27
2018-09-29T20:25:47.064Z,8.47
2018-09-29T20:28:19.501Z,10.67
2018-09-29T20:30:48.604Z,11.63
2018-09-29T20:33:28.782Z,9.67
2018-09-29T20:35:57.842Z,12.23
2018-09-29T20:38:28.960Z,8.93
2018-09-29T20:41:16.423Z,12.17
2018-09-29T20:43:45.294Z,10.53
2018-09-29T20:46:14.493Z,12.97
2018-09-29T20:48:46.897Z,10.97
2018-09-29T20:51:35.726Z,11.27
2018-09-29T20:54:28.387Z,11.63
2018-09-29T20:57:02.317Z,10.60
2018-09-29T20:59:32.292Z,9.77
2018-09-29T21:02:01.254Z,10.67
2018-09-29T21:04:30.189Z,11.53
2018-09-29T21:07:18.219Z,15.20
2018-09-29T21:09:59.794Z,9.97
2018-09-29T21:12:29.041Z,11.57
2018-09-29T21:15:04.074Z,16.53
2018-09-29T21:17:35.810Z,14.73
2018-09-29T21:20:05.660Z,11.70
2018-09-29T21:22:40.770Z,10.40
2018-09-29T21:25:11.213Z,12.23
2018-09-29T21:27:46.299Z,10.77
2018-09-29T21:30:27.910Z,14.57
2018-09-29T21:32:58.370Z,12.03
2018-09-29T21:35:34.446Z,12.57
2018-09-29T21:38:04.350Z,13.47
2018-09-29T21:40:33.466Z,14.20
2018-09-29T21:43:09.721Z,13.10
2018-09-29T21:45:44.460Z,12.00
2018-09-29T21:48:13.490Z,15.63
2018-09-29T21:53:44.617Z,11.70
2018-09-29T21:56:17.053Z,11.43
2018-09-29T21:58:47.042Z,15.27
2018-09-29T22:01:25.346Z,10.63
2018-09-29T22:03:59.212Z,14.17
2018-09-29T22:06:31.849Z,12.57
2018-09-29T22:09:04.993Z,13.53
2018-09-29T22:11:50.951Z,14.83
2018-09-29T22:14:30.304Z,12.83
2018-09-29T22:17:21.823Z,12.70
2018-09-29T22:19:51.761Z,11.27
2018-09-29T22:22:20.706Z,12.70
2018-09-29T22:24:49.670Z,12.77
2018-09-29T22:27:26.093Z,14.40
2018-09-29T22:29:55.081Z,11.33
2018-09-29T22:32:27.222Z,14.67
2018-09-29T22:34:59.382Z,14.83
2018-09-29T22:37:41.119Z,11.07
2018-09-29T22:40:11.046Z,16.77
2018-09-29T22:42:59.378Z,15.30
2018-09-29T22:45:31.371Z,20.97
2018-09-29T22:48:02.382Z,11.23
2018-09-29T22:50:31.347Z,10.93
2018-09-29T22:53:05.303Z,15.03
2018-09-29T22:55:40.909Z,12.43
2018-09-29T22:58:11.837Z,15.87
2018-09-29T23:00:53.733Z,12.70
2018-09-29T23:03:36.348Z,13.40
2018-09-29T23:06:05.284Z,11.73
2018-09-29T23:08:35.498Z,14.10
2018-09-29T23:11:04.859Z,13.47
2018-09-29T23:13:36.828Z,15.27
2018-09-29T23:16:11.327Z,11.93
2018-09-29T23:18:40.185Z,11.53
2018-09-29T23:21:11.112Z,11.43
2018-09-29T23:23:59.620Z,14.60
2018-09-29T23:26:28.569Z,10.63
2018-09-29T23:31:53.308Z,9.03
2018-09-29T23:34:28.104Z,10.67
2018-09-29T23:37:02.797Z,10.73
2018-09-29T23:39:31.792Z,11.40
2018-09-29T23:42:03.990Z,9.10
2018-09-29T23:44:50.822Z,10.73
2018-09-29T23:47:32.643Z,10.47
2018-09-29T23:50:01.521Z,9.00
2018-09-29T23:52:30.423Z,9.87
2018-09-29T23:54:59.319Z,8.60
2018-09-29T23:57:28.268Z,9.37
2018-09-29T23:59:57.164Z,10.83
